sensor_id;sensor_type;location;lat;lon;timestamp;temperature;humidity
22682;DHT22;11508;50.856;4.380;2023-07-02T00:01:03;16.80;1.00
22682;DHT22;11508;50.856;4.380;2023-07-02T00:03:29;16.80;1.00
22682;DHT22;11508;50.856;4.380;2023-07-02T00:05:55;16.80;1.00
22682;DHT22;11508;50.856;4.380;2023-07-02T00:08:22;16.80;1.00
22682;DHT22;11508;50.856;4.380;2023-07-02T00:10:48;16.80;1.00
22682;DHT22;11508;50.856;4.380;2023-07-02T00:13:14;16.80;1.00
22682;DHT22;11508;50.856;4.380;2023-07-02T00:15:40;16.70;4.40
22682;DHT22;11508;50.856;4.380;2023-07-02T00:18:06;16.70;10.20
22682;DHT22;11508;50.856;4.380;2023-07-02T00:20:33;16.70;8.80
22682;DHT22;11508;50.856;4.380;2023-07-02T00:23:06;16.70;9.80
22682;DHT22;11508;50.856;4.380;2023-07-02T00:25:34;16.70;9.70
22682;DHT22;11508;50.856;4.380;2023-07-02T00:28:00;16.80;5.40
22682;DHT22;11508;50.856;4.380;2023-07-02T00:30:25;16.70;12.60
22682;DHT22;11508;50.856;4.380;2023-07-02T00:32:51;16.60;16.80
22682;DHT22;11508;50.856;4.380;2023-07-02T00:35:17;16.70;18.00
22682;DHT22;11508;50.856;4.380;2023-07-02T00:37:42;16.70;15.40
22682;DHT22;11508;50.856;4.380;2023-07-02T00:40:08;16.60;16.80
22682;DHT22;11508;50.856;4.380;2023-07-02T00:42:34;16.60;22.30
22682;DHT22;11508;50.856;4.380;2023-07-02T00:45:00;16.70;16.90
22682;DHT22;11508;50.856;4.380;2023-07-02T00:47:30;16.70;23.10
22682;DHT22;11508;50.856;4.380;2023-07-02T00:49:55;16.70;25.10
22682;DHT22;11508;50.856;4.380;2023-07-02T00:52:21;16.70;19.60
22682;DHT22;11508;50.856;4.380;2023-07-02T00:54:49;16.60;25.50
22682;DHT22;11508;50.856;4.380;2023-07-02T00:57:14;16.60;31.20
22682;DHT22;11508;50.856;4.380;2023-07-02T00:59:40;16.60;31.10
22682;DHT22;11508;50.856;4.380;2023-07-02T01:02:06;16.60;34.40
22682;DHT22;11508;50.856;4.380;2023-07-02T01:04:31;16.70;26.60
22682;DHT22;11508;50.856;4.380;2023-07-02T01:06:57;16.70;21.20
22682;DHT22;11508;50.856;4.380;2023-07-02T01:09:26;16.60;28.90
22682;DHT22;11508;50.856;4.380;2023-07-02T01:12:04;16.70;27.40
22682;DHT22;11508;50.856;4.380;2023-07-02T01:14:37;16.60;42.20
22682;DHT22;11508;50.856;4.380;2023-07-02T01:17:03;16.60;33.50
22682;DHT22;11508;50.856;4.380;2023-07-02T01:19:42;16.60;36.60
22682;DHT22;11508;50.856;4.380;2023-07-02T01:22:09;16.60;39.90
22682;DHT22;11508;50.856;4.380;2023-07-02T01:24:36;16.60;39.10
22682;DHT22;11508;50.856;4.380;2023-07-02T01:27:02;16.60;43.00
22682;DHT22;11508;50.856;4.380;2023-07-02T01:29:29;16.70;38.40
22682;DHT22;11508;50.856;4.380;2023-07-02T01:31:56;16.60;40.70
22682;DHT22;11508;50.856;4.380;2023-07-02T01:34:22;16.70;41.30
22682;DHT22;11508;50.856;4.380;2023-07-02T01:36:48;16.60;45.50
22682;DHT22;11508;50.856;4.380;2023-07-02T01:39:13;16.70;42.90
22682;DHT22;11508;50.856;4.380;2023-07-02T01:41:51;16.60;47.30
22682;DHT22;11508;50.856;4.380;2023-07-02T01:44:17;16.60;48.90
22682;DHT22;11508;50.856;4.380;2023-07-02T01:46:44;16.70;45.10
22682;DHT22;11508;50.856;4.380;2023-07-02T01:49:10;16.70;49.80
22682;DHT22;11508;50.856;4.380;2023-07-02T01:51:36;16.70;44.90
22682;DHT22;11508;50.856;4.380;2023-07-02T01:54:01;16.70;43.50
22682;DHT22;11508;50.856;4.380;2023-07-02T01:56:27;16.70;52.10
22682;DHT22;11508;50.856;4.380;2023-07-02T01:58:53;16.80;50.70
22682;DHT22;11508;50.856;4.380;2023-07-02T02:01:19;16.80;40.80
22682;DHT22;11508;50.856;4.380;2023-07-02T02:03:45;16.80;38.00
22682;DHT22;11508;50.856;4.380;2023-07-02T02:06:10;16.60;55.30
22682;DHT22;11508;50.856;4.380;2023-07-02T02:08:36;16.50;69.60
22682;DHT22;11508;50.856;4.380;2023-07-02T02:11:02;16.50;70.00
22682;DHT22;11508;50.856;4.380;2023-07-02T02:13:27;16.40;75.30
22682;DHT22;11508;50.856;4.380;2023-07-02T02:15:54;16.40;81.50
22682;DHT22;11508;50.856;4.380;2023-07-02T02:20:46;16.30;89.40
22682;DHT22;11508;50.856;4.380;2023-07-02T02:23:12;16.40;85.90
22682;DHT22;11508;50.856;4.380;2023-07-02T02:25:37;16.50;79.80
22682;DHT22;11508;50.856;4.380;2023-07-02T02:28:03;16.40;87.10
22682;DHT22;11508;50.856;4.380;2023-07-02T02:30:29;16.40;90.00
22682;DHT22;11508;50.856;4.380;2023-07-02T02:32:55;16.30;92.00
22682;DHT22;11508;50.856;4.380;2023-07-02T02:35:20;16.20;95.80
22682;DHT22;11508;50.856;4.380;2023-07-02T02:37:48;16.30;96.30
22682;DHT22;11508;50.856;4.380;2023-07-02T02:40:15;16.30;94.90
22682;DHT22;11508;50.856;4.380;2023-07-02T02:42:40;16.30;93.90
22682;DHT22;11508;50.856;4.380;2023-07-02T02:45:07;16.30;96.00
22682;DHT22;11508;50.856;4.380;2023-07-02T02:47:32;16.30;97.90
22682;DHT22;11508;50.856;4.380;2023-07-02T02:49:59;16.20;96.50
22682;DHT22;11508;50.856;4.380;2023-07-02T02:52:25;16.20;99.80
22682;DHT22;11508;50.856;4.380;2023-07-02T02:54:51;16.30;98.50
22682;DHT22;11508;50.856;4.380;2023-07-02T02:57:18;16.10;99.90
22682;DHT22;11508;50.856;4.380;2023-07-02T02:59:44;16.10;99.90
22682;DHT22;11508;50.856;4.380;2023-07-02T03:02:10;16.10;99.90
22682;DHT22;11508;50.856;4.380;2023-07-02T03:04:35;16.10;99.90
22682;DHT22;11508;50.856;4.380;2023-07-02T03:07:07;16.20;99.90
22682;DHT22;11508;50.856;4.380;2023-07-02T03:09:33;16.10;99.90
22682;DHT22;11508;50.856;4.380;2023-07-02T03:11:59;16.00;99.90
22682;DHT22;11508;50.856;4.380;2023-07-02T03:14:25;16.00;99.90
22682;DHT22;11508;50.856;4.380;2023-07-02T03:16:50;15.90;99.90
22682;DHT22;11508;50.856;4.380;2023-07-02T03:19:16;15.80;99.90
22682;DHT22;11508;50.856;4.380;2023-07-02T03:21:43;15.90;99.90
22682;DHT22;11508;50.856;4.380;2023-07-02T03:24:08;15.90;99.90
22682;DHT22;11508;50.856;4.380;2023-07-02T03:26:44;15.80;99.90
22682;DHT22;11508;50.856;4.380;2023-07-02T03:29:10;15.80;99.90
22682;DHT22;11508;50.856;4.380;2023-07-02T03:31:36;15.80;99.90
22682;DHT22;11508;50.856;4.380;2023-07-02T03:34:06;15.80;99.90
22682;DHT22;11508;50.856;4.380;2023-07-02T03:36:31;15.70;99.90
22682;DHT22;11508;50.856;4.380;2023-07-02T03:38:58;15.80;99.90
22682;DHT22;11508;50.856;4.380;2023-07-02T03:41:24;15.80;99.90
22682;DHT22;11508;50.856;4.380;2023-07-02T03:43:50;15.70;99.90
22682;DHT22;11508;50.856;4.380;2023-07-02T03:46:16;15.70;99.90
22682;DHT22;11508;50.856;4.380;2023-07-02T03:48:41;15.60;99.90
22682;DHT22;11508;50.856;4.380;2023-07-02T03:51:07;15.60;99.90
22682;DHT22;11508;50.856;4.380;2023-07-02T03:53:33;15.70;99.90
22682;DHT22;11508;50.856;4.380;2023-07-02T03:55:58;15.70;99.90
22682;DHT22;11508;50.856;4.380;2023-07-02T03:58:24;15.60;99.90
22682;DHT22;11508;50.856;4.380;2023-07-02T04:00:50;15.50;99.90
22682;DHT22;11508;50.856;4.380;2023-07-02T04:03:16;15.40;99.90
22682;DHT22;11508;50.856;4.380;2023-07-02T04:05:42;15.40;99.90
22682;DHT22;11508;50.856;4.380;2023-07-02T04:08:08;15.40;99.90
22682;DHT22;11508;50.856;4.380;2023-07-02T04:10:34;15.40;99.90
22682;DHT22;11508;50.856;4.380;2023-07-02T04:12:59;15.60;99.90
22682;DHT22;11508;50.856;4.380;2023-07-02T04:15:25;15.40;99.90
22682;DHT22;11508;50.856;4.380;2023-07-02T04:17:52;15.40;99.90
22682;DHT22;11508;50.856;4.380;2023-07-02T04:20:21;15.40;99.90
22682;DHT22;11508;50.856;4.380;2023-07-02T04:22:47;15.40;99.90
22682;DHT22;11508;50.856;4.380;2023-07-02T04:25:15;15.40;99.90
22682;DHT22;11508;50.856;4.380;2023-07-02T04:27:44;15.50;99.90
22682;DHT22;11508;50.856;4.380;2023-07-02T04:30:13;15.50;99.90
22682;DHT22;11508;50.856;4.380;2023-07-02T04:32:40;15.50;99.90
22682;DHT22;11508;50.856;4.380;2023-07-02T04:35:07;15.50;99.90
22682;DHT22;11508;50.856;4.380;2023-07-02T04:37:33;15.60;99.90
22682;DHT22;11508;50.856;4.380;2023-07-02T04:39:59;15.60;99.90
22682;DHT22;11508;50.856;4.380;2023-07-02T04:42:26;15.70;99.90
22682;DHT22;11508;50.856;4.380;2023-07-02T04:44:56;15.60;99.90
22682;DHT22;11508;50.856;4.380;2023-07-02T04:47:21;15.60;99.90
22682;DHT22;11508;50.856;4.380;2023-07-02T04:49:47;15.60;99.90
22682;DHT22;11508;50.856;4.380;2023-07-02T04:52:13;15.60;99.90
22682;DHT22;11508;50.856;4.380;2023-07-02T04:54:39;15.50;99.90
22682;DHT22;11508;50.856;4.380;2023-07-02T04:57:04;15.50;99.90
22682;DHT22;11508;50.856;4.380;2023-07-02T04:59:30;15.50;99.90
22682;DHT22;11508;50.856;4.380;2023-07-02T05:01:55;15.60;99.90
22682;DHT22;11508;50.856;4.380;2023-07-02T05:04:21;15.60;99.90
22682;DHT22;11508;50.856;4.380;2023-07-02T05:06:47;15.60;99.90
22682;DHT22;11508;50.856;4.380;2023-07-02T05:09:12;15.80;99.90
22682;DHT22;11508;50.856;4.380;2023-07-02T05:11:38;15.90;99.90
22682;DHT22;11508;50.856;4.380;2023-07-02T05:14:04;16.00;99.90
22682;DHT22;11508;50.856;4.380;2023-07-02T05:16:30;15.80;99.90
22682;DHT22;11508;50.856;4.380;2023-07-02T05:18:56;15.80;99.90
22682;DHT22;11508;50.856;4.380;2023-07-02T05:21:22;15.90;99.90
22682;DHT22;11508;50.856;4.380;2023-07-02T05:23:48;15.90;99.90
22682;DHT22;11508;50.856;4.380;2023-07-02T05:26:14;15.80;99.90
22682;DHT22;11508;50.856;4.380;2023-07-02T05:28:39;16.00;99.90
22682;DHT22;11508;50.856;4.380;2023-07-02T05:31:05;16.40;99.90
22682;DHT22;11508;50.856;4.380;2023-07-02T05:33:31;16.70;96.90
22682;DHT22;11508;50.856;4.380;2023-07-02T05:35:57;16.90;92.80
22682;DHT22;11508;50.856;4.380;2023-07-02T05:38:24;16.90;88.60
22682;DHT22;11508;50.856;4.380;2023-07-02T05:40:50;17.00;85.30
22682;DHT22;11508;50.856;4.380;2023-07-02T05:43:16;17.10;87.40
22682;DHT22;11508;50.856;4.380;2023-07-02T05:45:42;16.90;88.20
22682;DHT22;11508;50.856;4.380;2023-07-02T05:48:07;16.80;98.80
22682;DHT22;11508;50.856;4.380;2023-07-02T05:50:33;16.90;94.70
22682;DHT22;11508;50.856;4.380;2023-07-02T05:52:59;16.90;94.40
22682;DHT22;11508;50.856;4.380;2023-07-02T05:55:25;16.80;91.70
22682;DHT22;11508;50.856;4.380;2023-07-02T05:57:50;16.70;99.90
22682;DHT22;11508;50.856;4.380;2023-07-02T06:00:17;16.80;94.90
22682;DHT22;11508;50.856;4.380;2023-07-02T06:02:46;17.00;91.50
22682;DHT22;11508;50.856;4.380;2023-07-02T06:05:12;17.10;71.50
22682;DHT22;11508;50.856;4.380;2023-07-02T06:07:37;17.20;81.10
22682;DHT22;11508;50.856;4.380;2023-07-02T06:10:03;17.50;52.80
22682;DHT22;11508;50.856;4.380;2023-07-02T06:12:29;17.30;72.80
22682;DHT22;11508;50.856;4.380;2023-07-02T06:14:55;17.70;48.00
22682;DHT22;11508;50.856;4.380;2023-07-02T06:17:20;18.00;9.40
22682;DHT22;11508;50.856;4.380;2023-07-02T06:19:48;17.60;25.20
22682;DHT22;11508;50.856;4.380;2023-07-02T06:22:13;17.50;41.20
22682;DHT22;11508;50.856;4.380;2023-07-02T06:24:39;17.30;59.20
22682;DHT22;11508;50.856;4.380;2023-07-02T06:27:05;17.60;48.20
22682;DHT22;11508;50.856;4.380;2023-07-02T06:29:30;17.60;30.20
22682;DHT22;11508;50.856;4.380;2023-07-02T06:31:56;17.40;23.00
22682;DHT22;11508;50.856;4.380;2023-07-02T06:34:21;17.90;5.60
22682;DHT22;11508;50.856;4.380;2023-07-02T06:36:48;18.50;1.00
22682;DHT22;11508;50.856;4.380;2023-07-02T06:39:13;18.60;1.00
22682;DHT22;11508;50.856;4.380;2023-07-02T06:41:39;18.90;1.00
22682;DHT22;11508;50.856;4.380;2023-07-02T06:44:05;19.80;1.00
22682;DHT22;11508;50.856;4.380;2023-07-02T06:46:31;19.60;1.00
22682;DHT22;11508;50.856;4.380;2023-07-02T06:48:57;19.60;99.90
22682;DHT22;11508;50.856;4.380;2023-07-02T06:51:23;18.90;99.90
22682;DHT22;11508;50.856;4.380;2023-07-02T06:53:50;18.90;99.90
22682;DHT22;11508;50.856;4.380;2023-07-02T06:56:16;20.20;99.90
22682;DHT22;11508;50.856;4.380;2023-07-02T06:58:42;21.20;99.90
22682;DHT22;11508;50.856;4.380;2023-07-02T07:01:08;21.10;99.90
22682;DHT22;11508;50.856;4.380;2023-07-02T07:03:37;21.80;1.00
22682;DHT22;11508;50.856;4.380;2023-07-02T07:06:03;20.50;17.10
22682;DHT22;11508;50.856;4.380;2023-07-02T07:08:29;19.50;99.90
22682;DHT22;11508;50.856;4.380;2023-07-02T07:10:55;19.00;99.90
22682;DHT22;11508;50.856;4.380;2023-07-02T07:13:20;19.30;99.90
22682;DHT22;11508;50.856;4.380;2023-07-02T07:15:46;20.20;99.90
22682;DHT22;11508;50.856;4.380;2023-07-02T07:18:12;20.60;26.80
22682;DHT22;11508;50.856;4.380;2023-07-02T07:20:39;21.10;99.90
22682;DHT22;11508;50.856;4.380;2023-07-02T07:23:05;21.10;1.00
22682;DHT22;11508;50.856;4.380;2023-07-02T07:25:31;20.90;10.80
22682;DHT22;11508;50.856;4.380;2023-07-02T07:27:59;20.20;67.50
22682;DHT22;11508;50.856;4.380;2023-07-02T07:30:25;20.70;70.30
22682;DHT22;11508;50.856;4.380;2023-07-02T07:32:54;21.40;89.40
22682;DHT22;11508;50.856;4.380;2023-07-02T07:35:23;22.00;99.90
22682;DHT22;11508;50.856;4.380;2023-07-02T07:37:49;20.90;99.90
22682;DHT22;11508;50.856;4.380;2023-07-02T07:40:15;21.10;99.90
22682;DHT22;11508;50.856;4.380;2023-07-02T07:42:41;20.70;99.90
22682;DHT22;11508;50.856;4.380;2023-07-02T07:45:09;21.30;99.90
22682;DHT22;11508;50.856;4.380;2023-07-02T07:47:35;21.60;99.90
22682;DHT22;11508;50.856;4.380;2023-07-02T07:50:01;21.90;99.90
22682;DHT22;11508;50.856;4.380;2023-07-02T07:52:27;22.30;99.90
22682;DHT22;11508;50.856;4.380;2023-07-02T07:54:52;22.40;99.90
22682;DHT22;11508;50.856;4.380;2023-07-02T07:57:18;22.60;99.90
22682;DHT22;11508;50.856;4.380;2023-07-02T07:59:44;22.60;98.20
22682;DHT22;11508;50.856;4.380;2023-07-02T08:02:10;22.00;98.20
22682;DHT22;11508;50.856;4.380;2023-07-02T08:04:35;21.00;99.90
22682;DHT22;11508;50.856;4.380;2023-07-02T08:07:01;20.90;99.90
22682;DHT22;11508;50.856;4.380;2023-07-02T08:09:29;20.00;99.90
22682;DHT22;11508;50.856;4.380;2023-07-02T08:11:55;19.60;99.90
22682;DHT22;11508;50.856;4.380;2023-07-02T08:14:21;19.70;90.60
22682;DHT22;11508;50.856;4.380;2023-07-02T08:16:47;19.90;1.00
22682;DHT22;11508;50.856;4.380;2023-07-02T08:19:13;20.00;99.90
22682;DHT22;11508;50.856;4.380;2023-07-02T08:21:38;19.90;99.90
22682;DHT22;11508;50.856;4.380;2023-07-02T08:24:04;20.00;1.00
22682;DHT22;11508;50.856;4.380;2023-07-02T08:26:31;20.90;99.90
22682;DHT22;11508;50.856;4.380;2023-07-02T08:28:57;21.50;99.90
22682;DHT22;11508;50.856;4.380;2023-07-02T08:31:22;22.40;1.00
22682;DHT22;11508;50.856;4.380;2023-07-02T08:33:48;22.40;99.90
22682;DHT22;11508;50.856;4.380;2023-07-02T08:36:13;22.00;36.00
22682;DHT22;11508;50.856;4.380;2023-07-02T08:38:39;21.30;66.00
22682;DHT22;11508;50.856;4.380;2023-07-02T08:41:08;21.30;99.90
22682;DHT22;11508;50.856;4.380;2023-07-02T08:43:35;21.60;99.90
22682;DHT22;11508;50.856;4.380;2023-07-02T08:46:02;21.40;99.90
22682;DHT22;11508;50.856;4.380;2023-07-02T08:48:28;22.20;1.00
22682;DHT22;11508;50.856;4.380;2023-07-02T08:50:55;22.40;1.00
22682;DHT22;11508;50.856;4.380;2023-07-02T08:53:21;21.30;1.00
22682;DHT22;11508;50.856;4.380;2023-07-02T08:55:55;21.20;99.90
22682;DHT22;11508;50.856;4.380;2023-07-02T08:58:21;20.20;1.00
22682;DHT22;11508;50.856;4.380;2023-07-02T09:01:06;20.00;99.90
22682;DHT22;11508;50.856;4.380;2023-07-02T09:03:32;20.40;1.00
22682;DHT22;11508;50.856;4.380;2023-07-02T09:05:58;20.20;99.90
22682;DHT22;11508;50.856;4.380;2023-07-02T09:08:25;20.40;99.90
22682;DHT22;11508;50.856;4.380;2023-07-02T09:10:51;20.00;83.40
22682;DHT22;11508;50.856;4.380;2023-07-02T09:13:17;19.90;99.90
22682;DHT22;11508;50.856;4.380;2023-07-02T09:15:42;20.60;1.00
22682;DHT22;11508;50.856;4.380;2023-07-02T09:20:41;21.90;99.90
22682;DHT22;11508;50.856;4.380;2023-07-02T09:23:06;21.60;99.90
22682;DHT22;11508;50.856;4.380;2023-07-02T09:25:37;21.30;99.90
22682;DHT22;11508;50.856;4.380;2023-07-02T09:28:20;20.00;99.90
22682;DHT22;11508;50.856;4.380;2023-07-02T09:30:54;19.20;1.00
22682;DHT22;11508;50.856;4.380;2023-07-02T09:33:24;18.90;77.00
22682;DHT22;11508;50.856;4.380;2023-07-02T09:35:50;18.90;99.90
22682;DHT22;11508;50.856;4.380;2023-07-02T09:38:19;19.10;99.90
22682;DHT22;11508;50.856;4.380;2023-07-02T09:40:47;19.60;99.90
22682;DHT22;11508;50.856;4.380;2023-07-02T09:43:19;20.00;99.90
22682;DHT22;11508;50.856;4.380;2023-07-02T09:45:47;20.20;99.90
22682;DHT22;11508;50.856;4.380;2023-07-02T09:48:14;20.40;99.90
22682;DHT22;11508;50.856;4.380;2023-07-02T09:50:45;19.80;99.90
22682;DHT22;11508;50.856;4.380;2023-07-02T09:53:11;19.70;99.90
22682;DHT22;11508;50.856;4.380;2023-07-02T09:55:38;19.90;99.90
22682;DHT22;11508;50.856;4.380;2023-07-02T09:58:05;20.40;99.90
22682;DHT22;11508;50.856;4.380;2023-07-02T10:00:31;20.40;40.70
22682;DHT22;11508;50.856;4.380;2023-07-02T10:02:56;20.30;18.00
22682;DHT22;11508;50.856;4.380;2023-07-02T10:05:40;20.00;99.90
22682;DHT22;11508;50.856;4.380;2023-07-02T10:08:16;20.30;1.00
22682;DHT22;11508;50.856;4.380;2023-07-02T10:10:46;21.40;1.00
22682;DHT22;11508;50.856;4.380;2023-07-02T10:13:12;21.90;1.00
22682;DHT22;11508;50.856;4.380;2023-07-02T10:15:38;22.30;99.90
22682;DHT22;11508;50.856;4.380;2023-07-02T10:18:06;22.80;99.90
22682;DHT22;11508;50.856;4.380;2023-07-02T10:20:37;22.60;99.90
22682;DHT22;11508;50.856;4.380;2023-07-02T10:23:04;23.00;1.00
22682;DHT22;11508;50.856;4.380;2023-07-02T10:25:35;22.40;26.50
22682;DHT22;11508;50.856;4.380;2023-07-02T10:28:18;22.80;1.00
22682;DHT22;11508;50.856;4.380;2023-07-02T10:30:45;23.10;1.00
22682;DHT22;11508;50.856;4.380;2023-07-02T10:33:17;21.40;1.00
22682;DHT22;11508;50.856;4.380;2023-07-02T10:35:45;21.30;1.00
22682;DHT22;11508;50.856;4.380;2023-07-02T10:38:22;20.70;99.90
22682;DHT22;11508;50.856;4.380;2023-07-02T10:40:55;20.40;99.90
22682;DHT22;11508;50.856;4.380;2023-07-02T10:43:29;21.10;99.90
22682;DHT22;11508;50.856;4.380;2023-07-02T10:45:55;20.50;99.90
22682;DHT22;11508;50.856;4.380;2023-07-02T10:48:22;20.00;1.00
22682;DHT22;11508;50.856;4.380;2023-07-02T10:50:47;20.30;1.00
22682;DHT22;11508;50.856;4.380;2023-07-02T10:53:20;21.20;1.00
22682;DHT22;11508;50.856;4.380;2023-07-02T10:55:52;22.30;99.90
22682;DHT22;11508;50.856;4.380;2023-07-02T10:58:18;23.20;1.00
22682;DHT22;11508;50.856;4.380;2023-07-02T11:00:50;23.70;99.90
22682;DHT22;11508;50.856;4.380;2023-07-02T11:05:42;23.80;99.90
22682;DHT22;11508;50.856;4.380;2023-07-02T11:08:09;23.30;99.90
22682;DHT22;11508;50.856;4.380;2023-07-02T11:10:35;22.30;99.90
22682;DHT22;11508;50.856;4.380;2023-07-02T11:13:10;22.00;99.90
22682;DHT22;11508;50.856;4.380;2023-07-02T11:15:36;21.70;99.90
22682;DHT22;11508;50.856;4.380;2023-07-02T11:18:30;22.20;99.90
22682;DHT22;11508;50.856;4.380;2023-07-02T11:20:56;22.80;99.90
22682;DHT22;11508;50.856;4.380;2023-07-02T11:23:23;21.80;99.90
22682;DHT22;11508;50.856;4.380;2023-07-02T11:25:59;21.30;99.90
22682;DHT22;11508;50.856;4.380;2023-07-02T11:28:25;21.30;99.90
22682;DHT22;11508;50.856;4.380;2023-07-02T11:30:51;21.20;99.90
22682;DHT22;11508;50.856;4.380;2023-07-02T11:33:16;22.30;99.90
22682;DHT22;11508;50.856;4.380;2023-07-02T11:35:43;22.60;99.90
22682;DHT22;11508;50.856;4.380;2023-07-02T11:38:12;22.50;99.90
22682;DHT22;11508;50.856;4.380;2023-07-02T11:40:38;22.80;99.90
22682;DHT22;11508;50.856;4.380;2023-07-02T11:43:04;23.20;99.90
22682;DHT22;11508;50.856;4.380;2023-07-02T11:45:31;24.50;28.20
22682;DHT22;11508;50.856;4.380;2023-07-02T11:47:57;25.40;1.00
22682;DHT22;11508;50.856;4.380;2023-07-02T11:50:23;24.30;99.90
22682;DHT22;11508;50.856;4.380;2023-07-02T11:52:49;22.40;99.90
22682;DHT22;11508;50.856;4.380;2023-07-02T11:55:14;22.10;1.00
22682;DHT22;11508;50.856;4.380;2023-07-02T11:57:40;22.60;1.00
22682;DHT22;11508;50.856;4.380;2023-07-02T12:00:06;22.80;1.00
22682;DHT22;11508;50.856;4.380;2023-07-02T12:02:32;23.40;1.00
22682;DHT22;11508;50.856;4.380;2023-07-02T12:04:57;24.30;1.00
22682;DHT22;11508;50.856;4.380;2023-07-02T12:07:23;25.20;99.90
22682;DHT22;11508;50.856;4.380;2023-07-02T12:09:50;25.90;99.90
22682;DHT22;11508;50.856;4.380;2023-07-02T12:12:16;25.80;99.90
22682;DHT22;11508;50.856;4.380;2023-07-02T12:14:41;25.50;99.90
22682;DHT22;11508;50.856;4.380;2023-07-02T12:17:09;25.30;99.90
22682;DHT22;11508;50.856;4.380;2023-07-02T12:19:38;25.70;99.90
22682;DHT22;11508;50.856;4.380;2023-07-02T12:22:04;23.90;99.90
22682;DHT22;11508;50.856;4.380;2023-07-02T12:24:30;23.20;99.90
22682;DHT22;11508;50.856;4.380;2023-07-02T12:26:56;23.40;99.90
22682;DHT22;11508;50.856;4.380;2023-07-02T12:29:21;24.40;99.90
22682;DHT22;11508;50.856;4.380;2023-07-02T12:31:47;25.00;99.90
22682;DHT22;11508;50.856;4.380;2023-07-02T12:34:12;25.20;99.90
22682;DHT22;11508;50.856;4.380;2023-07-02T12:36:38;23.20;99.90
22682;DHT22;11508;50.856;4.380;2023-07-02T12:39:04;23.30;99.90
22682;DHT22;11508;50.856;4.380;2023-07-02T12:41:29;23.90;99.90
22682;DHT22;11508;50.856;4.380;2023-07-02T12:43:56;23.70;99.90
22682;DHT22;11508;50.856;4.380;2023-07-02T12:46:22;24.00;99.90
22682;DHT22;11508;50.856;4.380;2023-07-02T12:48:47;23.70;99.90
22682;DHT22;11508;50.856;4.380;2023-07-02T12:51:13;23.90;99.90
22682;DHT22;11508;50.856;4.380;2023-07-02T12:53:40;23.70;99.90
22682;DHT22;11508;50.856;4.380;2023-07-02T12:56:06;23.40;99.90
22682;DHT22;11508;50.856;4.380;2023-07-02T12:58:31;22.80;99.90
22682;DHT22;11508;50.856;4.380;2023-07-02T13:00:57;22.40;99.90
22682;DHT22;11508;50.856;4.380;2023-07-02T13:03:23;22.50;1.00
22682;DHT22;11508;50.856;4.380;2023-07-02T13:05:50;22.80;99.90
22682;DHT22;11508;50.856;4.380;2023-07-02T13:08:17;21.90;99.90
22682;DHT22;11508;50.856;4.380;2023-07-02T13:10:43;23.00;1.00
22682;DHT22;11508;50.856;4.380;2023-07-02T13:13:09;23.00;1.00
22682;DHT22;11508;50.856;4.380;2023-07-02T13:15:35;23.60;99.90
22682;DHT22;11508;50.856;4.380;2023-07-02T13:18:01;23.70;99.90
22682;DHT22;11508;50.856;4.380;2023-07-02T13:20:26;23.60;99.90
22682;DHT22;11508;50.856;4.380;2023-07-02T13:22:52;24.30;99.90
22682;DHT22;11508;50.856;4.380;2023-07-02T13:25:18;25.40;99.90
22682;DHT22;11508;50.856;4.380;2023-07-02T13:27:44;24.80;99.90
22682;DHT22;11508;50.856;4.380;2023-07-02T13:30:09;24.80;99.90
22682;DHT22;11508;50.856;4.380;2023-07-02T13:32:35;24.20;99.90
22682;DHT22;11508;50.856;4.380;2023-07-02T13:35:01;23.70;99.90
22682;DHT22;11508;50.856;4.380;2023-07-02T13:37:27;23.80;99.90
22682;DHT22;11508;50.856;4.380;2023-07-02T13:39:52;23.60;99.90
22682;DHT22;11508;50.856;4.380;2023-07-02T13:42:18;23.40;99.90
22682;DHT22;11508;50.856;4.380;2023-07-02T13:44:44;23.40;99.90
22682;DHT22;11508;50.856;4.380;2023-07-02T13:47:09;23.00;99.90
22682;DHT22;11508;50.856;4.380;2023-07-02T13:49:36;22.50;99.90
22682;DHT22;11508;50.856;4.380;2023-07-02T13:52:02;21.90;99.90
22682;DHT22;11508;50.856;4.380;2023-07-02T13:54:27;21.80;99.90
22682;DHT22;11508;50.856;4.380;2023-07-02T13:56:54;22.10;99.90
22682;DHT22;11508;50.856;4.380;2023-07-02T13:59:20;22.40;99.90
22682;DHT22;11508;50.856;4.380;2023-07-02T14:01:47;22.30;99.90
22682;DHT22;11508;50.856;4.380;2023-07-02T14:04:13;22.30;99.90
22682;DHT22;11508;50.856;4.380;2023-07-02T14:06:40;22.40;99.90
22682;DHT22;11508;50.856;4.380;2023-07-02T14:09:06;22.30;99.90
22682;DHT22;11508;50.856;4.380;2023-07-02T14:11:33;22.00;99.90
22682;DHT22;11508;50.856;4.380;2023-07-02T14:13:59;22.10;1.00
22682;DHT22;11508;50.856;4.380;2023-07-02T14:16:25;22.40;1.00
22682;DHT22;11508;50.856;4.380;2023-07-02T14:18:51;23.00;1.00
22682;DHT22;11508;50.856;4.380;2023-07-02T14:21:17;23.00;99.90
22682;DHT22;11508;50.856;4.380;2023-07-02T14:23:43;23.30;99.90
22682;DHT22;11508;50.856;4.380;2023-07-02T14:26:09;23.30;99.90
22682;DHT22;11508;50.856;4.380;2023-07-02T14:28:35;22.90;99.90
22682;DHT22;11508;50.856;4.380;2023-07-02T14:31:03;22.90;99.90
22682;DHT22;11508;50.856;4.380;2023-07-02T14:33:31;22.90;99.90
22682;DHT22;11508;50.856;4.380;2023-07-02T14:35:57;22.50;99.90
22682;DHT22;11508;50.856;4.380;2023-07-02T14:38:23;22.80;99.90
22682;DHT22;11508;50.856;4.380;2023-07-02T14:40:49;22.50;99.90
22682;DHT22;11508;50.856;4.380;2023-07-02T14:43:16;22.80;99.90
22682;DHT22;11508;50.856;4.380;2023-07-02T14:45:53;23.00;99.90
22682;DHT22;11508;50.856;4.380;2023-07-02T14:48:19;22.60;99.90
22682;DHT22;11508;50.856;4.380;2023-07-02T14:50:48;22.70;99.90
22682;DHT22;11508;50.856;4.380;2023-07-02T14:53:14;22.60;99.90
22682;DHT22;11508;50.856;4.380;2023-07-02T14:55:40;22.20;99.90
22682;DHT22;11508;50.856;4.380;2023-07-02T14:58:06;22.30;99.90
22682;DHT22;11508;50.856;4.380;2023-07-02T15:00:31;22.30;99.90
22682;DHT22;11508;50.856;4.380;2023-07-02T15:02:58;22.60;99.90
22682;DHT22;11508;50.856;4.380;2023-07-02T15:05:24;22.30;99.90
22682;DHT22;11508;50.856;4.380;2023-07-02T15:07:50;22.20;99.90
22682;DHT22;11508;50.856;4.380;2023-07-02T15:10:17;22.60;99.90
22682;DHT22;11508;50.856;4.380;2023-07-02T15:12:42;22.50;99.90
22682;DHT22;11508;50.856;4.380;2023-07-02T15:15:08;22.30;99.90
22682;DHT22;11508;50.856;4.380;2023-07-02T15:17:34;22.20;99.90
22682;DHT22;11508;50.856;4.380;2023-07-02T15:20:00;21.90;99.90
22682;DHT22;11508;50.856;4.380;2023-07-02T15:22:26;21.90;99.90
22682;DHT22;11508;50.856;4.380;2023-07-02T15:24:52;22.10;99.90
22682;DHT22;11508;50.856;4.380;2023-07-02T15:27:17;22.30;99.90
22682;DHT22;11508;50.856;4.380;2023-07-02T15:29:43;22.60;99.90
22682;DHT22;11508;50.856;4.380;2023-07-02T15:32:09;22.40;99.90
22682;DHT22;11508;50.856;4.380;2023-07-02T15:34:34;22.70;99.90
22682;DHT22;11508;50.856;4.380;2023-07-02T15:37:00;22.40;99.90